Melbourne, Victoria

6:43 PM AEDT on November 01, 2014 (GMT +1100)
AO-SC3 | Change Station
CLOSE
Current Station
Personal Weather Station
Location: Melbourne, VICTORIA
Elevation: 23 ft
Nearby Weather Stations

Elev 23 ft 37.82 °S, 144.98 °E | Updated 4 minutes ago

Mostly Cloudy
Mostly Cloudy
55.8 °F
Feels Like 55.8 °F
N
2.0
Wind Variable Wind from South
Gusts 24.0 mph

Today
High -- | Low -- °F
--% Chance of Precip.
Yesterday
High -- | Low -- °F
Precip. -- in
6:13 AM 7:54 PM
Waxing Gibbous, 64% visible
Pressure 29.89 in
Visibility 6.2 miles
Clouds Mostly Cloudy 4800 ft
Dew Point 39 °F
Humidity 53%
Rainfall 0.30 in
Snow Depth Not available.
UV 1 out of 12
Pollen Not available.
Air Quality Not available.
Flu Activity Not available.
SPECI YMML 010731Z 24019G29KT 9999 BKN048 13/00 Q1012 FM0900 26012KT 9999 FEW035 SCT050 INTER 0731/0800 25025G38KT 5000 SHRAGS BKN030 FM0731 MOD TURB BLW 5000FT

More Conditions Fewer Conditions

Pressure 29.89 in
Visibility 6.2 miles
Clouds Mostly Cloudy 4800 ft
Dew Point 39 °F
Humidity 53%
Rainfall 0.30 in
Snow Depth Not available.
UV 1 out of 12
Pollen Not available.
Air Quality Not available.
Flu Activity Not available.
SPECI YMML 010731Z 24019G29KT 9999 BKN048 13/00 Q1012 FM0900 26012KT 9999 FEW035 SCT050 INTER 0731/0800 25025G38KT 5000 SHRAGS BKN030 FM0731 MOD TURB BLW 5000FT

More Conditions Fewer Conditions

10-Day Weather Forecast

Almanac

Astronomy

Nov. 01, 2014 Rise Set
Actual Time
Civil Twilight
Nautical Twilight
Astronomical Twilight
Moon
Length of Visible Light
Length of Day
Tomorrow will be .
, % of the Moon is Illuminated

Today's Extremes

Country Highs Country Lows

Community

WunderPhotos

Upload Photos

1,766,866 photos uploaded!

WunderBlogs® & News

Nearby

Air Quality

  Air Quality AQ Index Pollutant
Not available.

Snow Depth

Station Depth Elevation

Earthquake Activity

City Distance Mag. Time & Date
Minimum magnitude displayed is 2.5.

Coastal Water Temperatures

Place Temperature

Nearby Weather Stations